sensor_id;sensor_type;location;lat;lon;timestamp;P1;durP1;ratioP1;P2;durP2;ratioP2
21743;SDS011;11034;48.556;9.342;2022-07-18T00:02:16;2.72;;;1.60;;
21743;SDS011;11034;48.556;9.342;2022-07-18T00:04:44;2.00;;;1.73;;
21743;SDS011;11034;48.556;9.342;2022-07-18T00:07:13;1.70;;;1.58;;
21743;SDS011;11034;48.556;9.342;2022-07-18T00:09:41;3.55;;;1.83;;
21743;SDS011;11034;48.556;9.342;2022-07-18T00:12:10;4.95;;;1.70;;
21743;SDS011;11034;48.556;9.342;2022-07-18T00:14:39;4.10;;;1.90;;
21743;SDS011;11034;48.556;9.342;2022-07-18T00:17:08;2.15;;;1.58;;
21743;SDS011;11034;48.556;9.342;2022-07-18T00:19:37;2.20;;;1.50;;
21743;SDS011;11034;48.556;9.342;2022-07-18T00:22:07;2.15;;;1.67;;
21743;SDS011;11034;48.556;9.342;2022-07-18T00:24:36;3.58;;;1.92;;
21743;SDS011;11034;48.556;9.342;2022-07-18T00:27:04;2.03;;;1.67;;
21743;SDS011;11034;48.556;9.342;2022-07-18T00:29:34;2.88;;;1.60;;
21743;SDS011;11034;48.556;9.342;2022-07-18T00:32:03;2.53;;;1.67;;
21743;SDS011;11034;48.556;9.342;2022-07-18T00:34:33;2.42;;;1.60;;
21743;SDS011;11034;48.556;9.342;2022-07-18T00:37:02;2.50;;;1.80;;
21743;SDS011;11034;48.556;9.342;2022-07-18T00:39:31;2.22;;;1.85;;
21743;SDS011;11034;48.556;9.342;2022-07-18T00:41:59;3.45;;;1.60;;
21743;SDS011;11034;48.556;9.342;2022-07-18T00:44:27;3.30;;;1.55;;
21743;SDS011;11034;48.556;9.342;2022-07-18T00:46:57;1.80;;;1.50;;
21743;SDS011;11034;48.556;9.342;2022-07-18T00:49:27;3.65;;;1.67;;
21743;SDS011;11034;48.556;9.342;2022-07-18T00:51:58;2.10;;;1.70;;
21743;SDS011;11034;48.556;9.342;2022-07-18T00:54:26;2.63;;;1.80;;
21743;SDS011;11034;48.556;9.342;2022-07-18T00:56:54;2.13;;;1.50;;
21743;SDS011;11034;48.556;9.342;2022-07-18T00:59:22;2.45;;;1.33;;
21743;SDS011;11034;48.556;9.342;2022-07-18T01:02:11;2.35;;;1.60;;
21743;SDS011;11034;48.556;9.342;2022-07-18T01:04:38;1.73;;;1.60;;
21743;SDS011;11034;48.556;9.342;2022-07-18T01:07:08;5.03;;;1.75;;
21743;SDS011;11034;48.556;9.342;2022-07-18T01:09:36;1.83;;;1.63;;
21743;SDS011;11034;48.556;9.342;2022-07-18T01:12:05;2.50;;;1.80;;
21743;SDS011;11034;48.556;9.342;2022-07-18T01:14:34;5.78;;;1.83;;
21743;SDS011;11034;48.556;9.342;2022-07-18T01:17:11;3.72;;;1.80;;
21743;SDS011;11034;48.556;9.342;2022-07-18T01:19:40;1.88;;;1.67;;
21743;SDS011;11034;48.556;9.342;2022-07-18T01:22:09;2.60;;;1.70;;
21743;SDS011;11034;48.556;9.342;2022-07-18T01:24:38;2.10;;;1.70;;
21743;SDS011;11034;48.556;9.342;2022-07-18T01:27:07;3.60;;;1.83;;
21743;SDS011;11034;48.556;9.342;2022-07-18T01:29:36;2.08;;;1.70;;
21743;SDS011;11034;48.556;9.342;2022-07-18T01:32:04;3.72;;;1.80;;
21743;SDS011;11034;48.556;9.342;2022-07-18T01:34:33;2.60;;;1.70;;
21743;SDS011;11034;48.556;9.342;2022-07-18T01:37:02;2.88;;;1.90;;
21743;SDS011;11034;48.556;9.342;2022-07-18T01:39:32;2.10;;;1.63;;
21743;SDS011;11034;48.556;9.342;2022-07-18T01:42:02;2.92;;;1.58;;
21743;SDS011;11034;48.556;9.342;2022-07-18T01:44:32;3.17;;;1.80;;
21743;SDS011;11034;48.556;9.342;2022-07-18T01:47:01;1.92;;;1.52;;
21743;SDS011;11034;48.556;9.342;2022-07-18T01:49:29;2.13;;;1.48;;
21743;SDS011;11034;48.556;9.342;2022-07-18T01:51:57;2.53;;;1.70;;
21743;SDS011;11034;48.556;9.342;2022-07-18T01:54:27;2.55;;;1.60;;
21743;SDS011;11034;48.556;9.342;2022-07-18T01:56:59;4.35;;;1.35;;
21743;SDS011;11034;48.556;9.342;2022-07-18T01:59:28;4.97;;;1.75;;
21743;SDS011;11034;48.556;9.342;2022-07-18T02:01:56;2.08;;;1.67;;
21743;SDS011;11034;48.556;9.342;2022-07-18T02:04:24;2.95;;;1.90;;
21743;SDS011;11034;48.556;9.342;2022-07-18T02:07:06;2.20;;;1.60;;
21743;SDS011;11034;48.556;9.342;2022-07-18T02:09:34;2.55;;;1.80;;
21743;SDS011;11034;48.556;9.342;2022-07-18T02:12:04;4.35;;;1.50;;
21743;SDS011;11034;48.556;9.342;2022-07-18T02:14:32;2.13;;;1.58;;
21743;SDS011;11034;48.556;9.342;2022-07-18T02:17:00;3.05;;;1.70;;
21743;SDS011;11034;48.556;9.342;2022-07-18T02:19:28;2.05;;;1.65;;
21743;SDS011;11034;48.556;9.342;2022-07-18T02:21:57;2.67;;;1.60;;
21743;SDS011;11034;48.556;9.342;2022-07-18T02:24:25;3.60;;;1.55;;
21743;SDS011;11034;48.556;9.342;2022-07-18T02:26:53;2.65;;;1.60;;
21743;SDS011;11034;48.556;9.342;2022-07-18T02:29:23;2.17;;;1.80;;
21743;SDS011;11034;48.556;9.342;2022-07-18T02:31:51;7.95;;;3.10;;
21743;SDS011;11034;48.556;9.342;2022-07-18T02:34:19;3.42;;;2.00;;
21743;SDS011;11034;48.556;9.342;2022-07-18T02:36:47;3.50;;;1.80;;
21743;SDS011;11034;48.556;9.342;2022-07-18T02:39:17;3.25;;;2.13;;
21743;SDS011;11034;48.556;9.342;2022-07-18T02:41:45;3.08;;;2.15;;
21743;SDS011;11034;48.556;9.342;2022-07-18T02:44:13;3.60;;;2.13;;
21743;SDS011;11034;48.556;9.342;2022-07-18T02:46:43;2.65;;;1.95;;
21743;SDS011;11034;48.556;9.342;2022-07-18T02:49:11;3.40;;;2.05;;
21743;SDS011;11034;48.556;9.342;2022-07-18T02:51:53;3.15;;;2.15;;
21743;SDS011;11034;48.556;9.342;2022-07-18T02:54:23;2.50;;;1.63;;
21743;SDS011;11034;48.556;9.342;2022-07-18T02:56:52;7.22;;;1.70;;
21743;SDS011;11034;48.556;9.342;2022-07-18T02:59:21;2.47;;;1.70;;
21743;SDS011;11034;48.556;9.342;2022-07-18T03:01:51;3.08;;;1.40;;
21743;SDS011;11034;48.556;9.342;2022-07-18T03:04:20;2.13;;;1.27;;
21743;SDS011;11034;48.556;9.342;2022-07-18T03:06:48;1.50;;;1.35;;
21743;SDS011;11034;48.556;9.342;2022-07-18T03:09:17;1.70;;;1.35;;
21743;SDS011;11034;48.556;9.342;2022-07-18T03:11:45;7.40;;;1.50;;
21743;SDS011;11034;48.556;9.342;2022-07-18T03:14:14;4.30;;;1.42;;
21743;SDS011;11034;48.556;9.342;2022-07-18T03:16:42;2.38;;;1.60;;
21743;SDS011;11034;48.556;9.342;2022-07-18T03:19:13;3.20;;;1.65;;
21743;SDS011;11034;48.556;9.342;2022-07-18T03:21:42;3.53;;;1.77;;
21743;SDS011;11034;48.556;9.342;2022-07-18T03:24:10;2.60;;;1.50;;
21743;SDS011;11034;48.556;9.342;2022-07-18T03:26:40;3.50;;;1.85;;
21743;SDS011;11034;48.556;9.342;2022-07-18T03:29:09;3.67;;;1.65;;
21743;SDS011;11034;48.556;9.342;2022-07-18T03:31:37;3.50;;;1.70;;
21743;SDS011;11034;48.556;9.342;2022-07-18T03:34:05;3.08;;;1.55;;
21743;SDS011;11034;48.556;9.342;2022-07-18T03:36:36;3.80;;;1.75;;
21743;SDS011;11034;48.556;9.342;2022-07-18T03:39:05;3.35;;;1.50;;
21743;SDS011;11034;48.556;9.342;2022-07-18T03:41:34;3.95;;;1.60;;
21743;SDS011;11034;48.556;9.342;2022-07-18T03:44:03;2.95;;;1.60;;
21743;SDS011;11034;48.556;9.342;2022-07-18T03:46:32;2.25;;;1.50;;
21743;SDS011;11034;48.556;9.342;2022-07-18T03:49:01;2.63;;;1.40;;
21743;SDS011;11034;48.556;9.342;2022-07-18T03:51:29;3.17;;;1.20;;
21743;SDS011;11034;48.556;9.342;2022-07-18T03:53:59;2.00;;;1.30;;
21743;SDS011;11034;48.556;9.342;2022-07-18T03:56:27;2.90;;;1.40;;
21743;SDS011;11034;48.556;9.342;2022-07-18T03:58:55;3.90;;;1.45;;
21743;SDS011;11034;48.556;9.342;2022-07-18T04:01:23;2.80;;;1.33;;
21743;SDS011;11034;48.556;9.342;2022-07-18T04:03:51;4.10;;;1.60;;
21743;SDS011;11034;48.556;9.342;2022-07-18T04:06:20;2.22;;;1.40;;
21743;SDS011;11034;48.556;9.342;2022-07-18T04:08:48;2.83;;;1.35;;
21743;SDS011;11034;48.556;9.342;2022-07-18T04:11:17;3.65;;;1.33;;
21743;SDS011;11034;48.556;9.342;2022-07-18T04:13:50;2.67;;;1.50;;
21743;SDS011;11034;48.556;9.342;2022-07-18T04:16:18;1.95;;;1.40;;
21743;SDS011;11034;48.556;9.342;2022-07-18T04:18:46;2.08;;;1.38;;
21743;SDS011;11034;48.556;9.342;2022-07-18T04:21:15;4.55;;;1.48;;
21743;SDS011;11034;48.556;9.342;2022-07-18T04:23:43;2.15;;;1.58;;
21743;SDS011;11034;48.556;9.342;2022-07-18T04:26:11;1.95;;;1.50;;
21743;SDS011;11034;48.556;9.342;2022-07-18T04:28:41;2.72;;;1.70;;
21743;SDS011;11034;48.556;9.342;2022-07-18T04:31:09;4.28;;;2.15;;
21743;SDS011;11034;48.556;9.342;2022-07-18T04:33:37;1.73;;;1.40;;
21743;SDS011;11034;48.556;9.342;2022-07-18T04:36:06;1.70;;;1.42;;
21743;SDS011;11034;48.556;9.342;2022-07-18T04:38:34;1.90;;;1.52;;
21743;SDS011;11034;48.556;9.342;2022-07-18T04:41:03;2.70;;;1.83;;
21743;SDS011;11034;48.556;9.342;2022-07-18T04:43:32;2.92;;;2.00;;
21743;SDS011;11034;48.556;9.342;2022-07-18T04:46:01;4.38;;;1.85;;
21743;SDS011;11034;48.556;9.342;2022-07-18T04:48:29;2.83;;;1.95;;
21743;SDS011;11034;48.556;9.342;2022-07-18T04:50:57;3.72;;;1.80;;
21743;SDS011;11034;48.556;9.342;2022-07-18T04:53:25;5.40;;;2.20;;
21743;SDS011;11034;48.556;9.342;2022-07-18T04:55:53;6.95;;;2.10;;
21743;SDS011;11034;48.556;9.342;2022-07-18T04:58:21;4.90;;;2.00;;
21743;SDS011;11034;48.556;9.342;2022-07-18T05:00:50;4.07;;;1.90;;
21743;SDS011;11034;48.556;9.342;2022-07-18T05:03:19;5.78;;;2.40;;
21743;SDS011;11034;48.556;9.342;2022-07-18T05:05:47;5.22;;;2.40;;
21743;SDS011;11034;48.556;9.342;2022-07-18T05:08:15;6.25;;;2.63;;
21743;SDS011;11034;48.556;9.342;2022-07-18T05:10:44;2.15;;;1.85;;
21743;SDS011;11034;48.556;9.342;2022-07-18T05:13:12;2.05;;;1.60;;
21743;SDS011;11034;48.556;9.342;2022-07-18T05:15:41;2.72;;;1.70;;
21743;SDS011;11034;48.556;9.342;2022-07-18T05:18:09;3.38;;;1.80;;
21743;SDS011;11034;48.556;9.342;2022-07-18T05:20:42;5.55;;;1.77;;
21743;SDS011;11034;48.556;9.342;2022-07-18T05:23:10;5.32;;;1.80;;
21743;SDS011;11034;48.556;9.342;2022-07-18T05:25:40;3.05;;;1.50;;
21743;SDS011;11034;48.556;9.342;2022-07-18T05:28:08;4.90;;;1.90;;
21743;SDS011;11034;48.556;9.342;2022-07-18T05:30:37;1.73;;;1.40;;
21743;SDS011;11034;48.556;9.342;2022-07-18T05:33:05;2.80;;;1.55;;
21743;SDS011;11034;48.556;9.342;2022-07-18T05:35:33;3.92;;;1.90;;
21743;SDS011;11034;48.556;9.342;2022-07-18T05:38:03;3.45;;;1.70;;
21743;SDS011;11034;48.556;9.342;2022-07-18T05:40:31;3.17;;;1.60;;
21743;SDS011;11034;48.556;9.342;2022-07-18T05:42:59;3.47;;;1.70;;
21743;SDS011;11034;48.556;9.342;2022-07-18T05:45:27;3.03;;;1.40;;
21743;SDS011;11034;48.556;9.342;2022-07-18T05:47:56;2.53;;;1.70;;
21743;SDS011;11034;48.556;9.342;2022-07-18T05:50:24;3.42;;;1.58;;
21743;SDS011;11034;48.556;9.342;2022-07-18T05:52:52;5.40;;;1.75;;
21743;SDS011;11034;48.556;9.342;2022-07-18T05:55:22;2.45;;;1.67;;
21743;SDS011;11034;48.556;9.342;2022-07-18T05:57:50;2.92;;;1.50;;
21743;SDS011;11034;48.556;9.342;2022-07-18T06:00:18;2.85;;;1.83;;
21743;SDS011;11034;48.556;9.342;2022-07-18T06:02:47;2.85;;;1.85;;
21743;SDS011;11034;48.556;9.342;2022-07-18T06:05:16;5.28;;;1.90;;
21743;SDS011;11034;48.556;9.342;2022-07-18T06:07:48;4.20;;;1.70;;
21743;SDS011;11034;48.556;9.342;2022-07-18T06:10:16;3.67;;;2.20;;
21743;SDS011;11034;48.556;9.342;2022-07-18T06:12:46;5.32;;;1.90;;
21743;SDS011;11034;48.556;9.342;2022-07-18T06:15:16;4.30;;;1.90;;
21743;SDS011;11034;48.556;9.342;2022-07-18T06:17:44;3.35;;;2.10;;
21743;SDS011;11034;48.556;9.342;2022-07-18T06:20:12;2.72;;;1.63;;
21743;SDS011;11034;48.556;9.342;2022-07-18T06:22:40;4.15;;;1.83;;
21743;SDS011;11034;48.556;9.342;2022-07-18T06:25:09;2.65;;;2.03;;
21743;SDS011;11034;48.556;9.342;2022-07-18T06:27:39;3.42;;;1.90;;
21743;SDS011;11034;48.556;9.342;2022-07-18T06:30:09;2.33;;;2.00;;
21743;SDS011;11034;48.556;9.342;2022-07-18T06:32:38;3.65;;;1.67;;
21743;SDS011;11034;48.556;9.342;2022-07-18T06:35:07;3.28;;;1.95;;
21743;SDS011;11034;48.556;9.342;2022-07-18T06:37:35;2.95;;;1.70;;
21743;SDS011;11034;48.556;9.342;2022-07-18T06:40:05;2.78;;;1.70;;
21743;SDS011;11034;48.556;9.342;2022-07-18T06:42:34;6.68;;;2.20;;
21743;SDS011;11034;48.556;9.342;2022-07-18T06:45:03;3.10;;;1.80;;
21743;SDS011;11034;48.556;9.342;2022-07-18T06:47:40;2.40;;;1.90;;
21743;SDS011;11034;48.556;9.342;2022-07-18T06:50:08;3.90;;;1.77;;
21743;SDS011;11034;48.556;9.342;2022-07-18T06:52:37;2.55;;;1.70;;
21743;SDS011;11034;48.556;9.342;2022-07-18T06:55:07;3.10;;;1.98;;
21743;SDS011;11034;48.556;9.342;2022-07-18T06:57:36;2.78;;;1.55;;
21743;SDS011;11034;48.556;9.342;2022-07-18T07:00:05;1.98;;;1.80;;
21743;SDS011;11034;48.556;9.342;2022-07-18T07:02:40;5.70;;;1.88;;
21743;SDS011;11034;48.556;9.342;2022-07-18T07:05:09;4.07;;;1.88;;
21743;SDS011;11034;48.556;9.342;2022-07-18T07:07:37;3.13;;;1.80;;
21743;SDS011;11034;48.556;9.342;2022-07-18T07:10:13;4.35;;;1.65;;
21743;SDS011;11034;48.556;9.342;2022-07-18T07:12:43;2.92;;;1.67;;
21743;SDS011;11034;48.556;9.342;2022-07-18T07:15:14;2.63;;;1.88;;
21743;SDS011;11034;48.556;9.342;2022-07-18T07:17:46;4.45;;;2.00;;
21743;SDS011;11034;48.556;9.342;2022-07-18T07:20:14;3.10;;;2.05;;
21743;SDS011;11034;48.556;9.342;2022-07-18T07:22:45;4.95;;;1.92;;
21743;SDS011;11034;48.556;9.342;2022-07-18T07:25:14;3.75;;;1.80;;
21743;SDS011;11034;48.556;9.342;2022-07-18T07:27:43;5.35;;;1.83;;
21743;SDS011;11034;48.556;9.342;2022-07-18T07:30:13;5.32;;;2.08;;
21743;SDS011;11034;48.556;9.342;2022-07-18T07:32:43;3.63;;;1.83;;
21743;SDS011;11034;48.556;9.342;2022-07-18T07:35:14;2.70;;;1.70;;
21743;SDS011;11034;48.556;9.342;2022-07-18T07:37:44;4.32;;;1.60;;
21743;SDS011;11034;48.556;9.342;2022-07-18T07:40:13;5.00;;;1.80;;
21743;SDS011;11034;48.556;9.342;2022-07-18T07:42:42;3.80;;;1.83;;
21743;SDS011;11034;48.556;9.342;2022-07-18T07:45:11;2.58;;;1.73;;
21743;SDS011;11034;48.556;9.342;2022-07-18T07:47:40;4.20;;;1.73;;
21743;SDS011;11034;48.556;9.342;2022-07-18T07:50:10;4.88;;;1.90;;
21743;SDS011;11034;48.556;9.342;2022-07-18T07:52:39;3.08;;;1.77;;
21743;SDS011;11034;48.556;9.342;2022-07-18T07:55:07;3.10;;;1.98;;
21743;SDS011;11034;48.556;9.342;2022-07-18T07:57:35;4.70;;;2.00;;
21743;SDS011;11034;48.556;9.342;2022-07-18T08:00:05;13.77;;;2.35;;
21743;SDS011;11034;48.556;9.342;2022-07-18T08:02:35;2.42;;;1.58;;
21743;SDS011;11034;48.556;9.342;2022-07-18T08:05:03;4.05;;;1.90;;
21743;SDS011;11034;48.556;9.342;2022-07-18T08:07:33;3.50;;;1.83;;
21743;SDS011;11034;48.556;9.342;2022-07-18T08:10:02;4.45;;;2.13;;
21743;SDS011;11034;48.556;9.342;2022-07-18T08:12:30;2.70;;;1.80;;
21743;SDS011;11034;48.556;9.342;2022-07-18T08:14:58;3.70;;;1.80;;
21743;SDS011;11034;48.556;9.342;2022-07-18T08:17:27;3.63;;;1.80;;
21743;SDS011;11034;48.556;9.342;2022-07-18T08:19:55;2.83;;;1.90;;
21743;SDS011;11034;48.556;9.342;2022-07-18T08:22:23;2.47;;;1.60;;
21743;SDS011;11034;48.556;9.342;2022-07-18T08:24:53;3.38;;;1.77;;
21743;SDS011;11034;48.556;9.342;2022-07-18T08:27:21;2.42;;;1.80;;
21743;SDS011;11034;48.556;9.342;2022-07-18T08:29:49;9.38;;;2.25;;
21743;SDS011;11034;48.556;9.342;2022-07-18T08:32:34;2.38;;;1.90;;
21743;SDS011;11034;48.556;9.342;2022-07-18T08:35:02;5.18;;;2.00;;
21743;SDS011;11034;48.556;9.342;2022-07-18T08:37:31;3.80;;;1.90;;
21743;SDS011;11034;48.556;9.342;2022-07-18T08:40:01;2.10;;;1.90;;
21743;SDS011;11034;48.556;9.342;2022-07-18T08:42:30;6.72;;;2.00;;
21743;SDS011;11034;48.556;9.342;2022-07-18T08:45:01;6.35;;;1.90;;
21743;SDS011;11034;48.556;9.342;2022-07-18T08:47:32;3.85;;;1.90;;
21743;SDS011;11034;48.556;9.342;2022-07-18T08:50:01;4.75;;;2.00;;
21743;SDS011;11034;48.556;9.342;2022-07-18T08:52:30;3.97;;;2.13;;
21743;SDS011;11034;48.556;9.342;2022-07-18T08:55:20;2.28;;;1.80;;
21743;SDS011;11034;48.556;9.342;2022-07-18T08:57:51;2.35;;;2.00;;
21743;SDS011;11034;48.556;9.342;2022-07-18T09:00:20;4.90;;;2.28;;
21743;SDS011;11034;48.556;9.342;2022-07-18T09:02:55;6.70;;;2.30;;
21743;SDS011;11034;48.556;9.342;2022-07-18T09:05:24;4.47;;;2.15;;
21743;SDS011;11034;48.556;9.342;2022-07-18T09:08:09;3.28;;;2.05;;
21743;SDS011;11034;48.556;9.342;2022-07-18T09:10:49;2.20;;;1.92;;
21743;SDS011;11034;48.556;9.342;2022-07-18T09:13:21;4.60;;;2.40;;
21743;SDS011;11034;48.556;9.342;2022-07-18T09:15:58;4.18;;;2.30;;
21743;SDS011;11034;48.556;9.342;2022-07-18T09:18:28;5.13;;;2.28;;
21743;SDS011;11034;48.556;9.342;2022-07-18T09:21:05;5.18;;;2.10;;
21743;SDS011;11034;48.556;9.342;2022-07-18T09:23:36;3.38;;;2.05;;
21743;SDS011;11034;48.556;9.342;2022-07-18T09:26:10;3.40;;;2.05;;
21743;SDS011;11034;48.556;9.342;2022-07-18T09:28:45;4.35;;;2.40;;
21743;SDS011;11034;48.556;9.342;2022-07-18T09:31:35;4.20;;;2.33;;
21743;SDS011;11034;48.556;9.342;2022-07-18T09:34:03;3.28;;;2.50;;
21743;SDS011;11034;48.556;9.342;2022-07-18T09:36:31;5.03;;;1.98;;
21743;SDS011;11034;48.556;9.342;2022-07-18T09:39:15;4.57;;;2.05;;
21743;SDS011;11034;48.556;9.342;2022-07-18T09:41:46;3.65;;;2.13;;
21743;SDS011;11034;48.556;9.342;2022-07-18T09:44:15;3.90;;;2.10;;
21743;SDS011;11034;48.556;9.342;2022-07-18T09:46:59;3.55;;;2.05;;
21743;SDS011;11034;48.556;9.342;2022-07-18T09:49:28;3.25;;;2.20;;
21743;SDS011;11034;48.556;9.342;2022-07-18T09:52:01;5.85;;;2.53;;
21743;SDS011;11034;48.556;9.342;2022-07-18T09:54:37;5.50;;;2.40;;
21743;SDS011;11034;48.556;9.342;2022-07-18T09:57:08;3.15;;;2.10;;
21743;SDS011;11034;48.556;9.342;2022-07-18T09:59:36;5.50;;;2.25;;
21743;SDS011;11034;48.556;9.342;2022-07-18T10:02:13;5.05;;;1.90;;
21743;SDS011;11034;48.556;9.342;2022-07-18T10:04:41;2.38;;;2.17;;
21743;SDS011;11034;48.556;9.342;2022-07-18T10:07:10;3.58;;;2.10;;
21743;SDS011;11034;48.556;9.342;2022-07-18T10:09:39;4.78;;;2.00;;
21743;SDS011;11034;48.556;9.342;2022-07-18T10:12:09;3.80;;;2.08;;
21743;SDS011;11034;48.556;9.342;2022-07-18T10:14:37;5.18;;;1.90;;
21743;SDS011;11034;48.556;9.342;2022-07-18T10:17:06;4.43;;;2.00;;
21743;SDS011;11034;48.556;9.342;2022-07-18T10:19:34;3.53;;;2.10;;
21743;SDS011;11034;48.556;9.342;2022-07-18T10:22:02;4.28;;;1.90;;
21743;SDS011;11034;48.556;9.342;2022-07-18T10:24:33;4.65;;;1.85;;
21743;SDS011;11034;48.556;9.342;2022-07-18T10:27:13;8.23;;;2.03;;
21743;SDS011;11034;48.556;9.342;2022-07-18T10:32:34;6.57;;;1.90;;
21743;SDS011;11034;48.556;9.342;2022-07-18T10:35:02;4.55;;;2.17;;
21743;SDS011;11034;48.556;9.342;2022-07-18T10:37:33;7.82;;;1.95;;
21743;SDS011;11034;48.556;9.342;2022-07-18T10:46:02;6.50;;;2.10;;
21743;SDS011;11034;48.556;9.342;2022-07-18T10:48:51;3.63;;;2.28;;
21743;SDS011;11034;48.556;9.342;2022-07-18T10:51:30;7.38;;;2.25;;
21743;SDS011;11034;48.556;9.342;2022-07-18T10:54:04;4.07;;;1.83;;
21743;SDS011;11034;48.556;9.342;2022-07-18T10:59:39;4.97;;;2.22;;
21743;SDS011;11034;48.556;9.342;2022-07-18T11:02:31;6.28;;;2.20;;
21743;SDS011;11034;48.556;9.342;2022-07-18T11:05:00;3.88;;;2.20;;
21743;SDS011;11034;48.556;9.342;2022-07-18T11:07:29;2.55;;;2.17;;
21743;SDS011;11034;48.556;9.342;2022-07-18T11:09:57;6.75;;;2.60;;
21743;SDS011;11034;48.556;9.342;2022-07-18T11:12:26;3.28;;;2.35;;
21743;SDS011;11034;48.556;9.342;2022-07-18T11:15:07;4.15;;;2.10;;
21743;SDS011;11034;48.556;9.342;2022-07-18T11:20:29;8.70;;;2.20;;
21743;SDS011;11034;48.556;9.342;2022-07-18T11:23:13;3.10;;;2.30;;
21743;SDS011;11034;48.556;9.342;2022-07-18T11:25:43;2.45;;;2.00;;
21743;SDS011;11034;48.556;9.342;2022-07-18T11:28:23;4.15;;;2.10;;
21743;SDS011;11034;48.556;9.342;2022-07-18T11:31:03;4.35;;;2.38;;
21743;SDS011;11034;48.556;9.342;2022-07-18T11:33:33;4.53;;;2.13;;
21743;SDS011;11034;48.556;9.342;2022-07-18T11:36:03;5.13;;;2.17;;
21743;SDS011;11034;48.556;9.342;2022-07-18T11:38:33;8.38;;;2.30;;
21743;SDS011;11034;48.556;9.342;2022-07-18T11:41:02;5.72;;;1.92;;
21743;SDS011;11034;48.556;9.342;2022-07-18T11:43:31;4.00;;;2.05;;
21743;SDS011;11034;48.556;9.342;2022-07-18T11:46:00;6.28;;;2.20;;
21743;SDS011;11034;48.556;9.342;2022-07-18T11:48:42;6.53;;;2.45;;
21743;SDS011;11034;48.556;9.342;2022-07-18T11:51:11;3.72;;;2.30;;
21743;SDS011;11034;48.556;9.342;2022-07-18T11:53:43;5.50;;;2.30;;
21743;SDS011;11034;48.556;9.342;2022-07-18T11:56:12;4.57;;;2.42;;
21743;SDS011;11034;48.556;9.342;2022-07-18T11:58:41;4.75;;;2.10;;
21743;SDS011;11034;48.556;9.342;2022-07-18T12:01:12;2.25;;;2.05;;
21743;SDS011;11034;48.556;9.342;2022-07-18T12:03:41;7.30;;;2.35;;
21743;SDS011;11034;48.556;9.342;2022-07-18T12:06:11;4.20;;;2.05;;
21743;SDS011;11034;48.556;9.342;2022-07-18T12:08:42;3.72;;;2.00;;
21743;SDS011;11034;48.556;9.342;2022-07-18T12:11:12;3.45;;;2.10;;
21743;SDS011;11034;48.556;9.342;2022-07-18T12:13:45;5.32;;;2.00;;
21743;SDS011;11034;48.556;9.342;2022-07-18T12:16:33;2.60;;;2.08;;
21743;SDS011;11034;48.556;9.342;2022-07-18T12:19:06;3.85;;;2.13;;
21743;SDS011;11034;48.556;9.342;2022-07-18T12:21:48;2.92;;;1.90;;
21743;SDS011;11034;48.556;9.342;2022-07-18T12:24:23;3.67;;;2.30;;
21743;SDS011;11034;48.556;9.342;2022-07-18T12:27:11;3.88;;;2.20;;
21743;SDS011;11034;48.556;9.342;2022-07-18T12:29:52;3.85;;;2.00;;
21743;SDS011;11034;48.556;9.342;2022-07-18T12:32:23;3.47;;;2.15;;
21743;SDS011;11034;48.556;9.342;2022-07-18T12:34:56;5.60;;;2.10;;
21743;SDS011;11034;48.556;9.342;2022-07-18T12:37:25;4.13;;;2.05;;
21743;SDS011;11034;48.556;9.342;2022-07-18T12:39:57;4.53;;;1.90;;
21743;SDS011;11034;48.556;9.342;2022-07-18T12:42:47;3.97;;;1.90;;
21743;SDS011;11034;48.556;9.342;2022-07-18T12:45:15;2.80;;;1.88;;
21743;SDS011;11034;48.556;9.342;2022-07-18T12:47:45;2.72;;;2.15;;
21743;SDS011;11034;48.556;9.342;2022-07-18T12:50:14;4.63;;;1.92;;
21743;SDS011;11034;48.556;9.342;2022-07-18T12:52:42;4.75;;;2.22;;
21743;SDS011;11034;48.556;9.342;2022-07-18T12:55:10;3.95;;;2.10;;
21743;SDS011;11034;48.556;9.342;2022-07-18T12:57:38;4.32;;;2.20;;
21743;SDS011;11034;48.556;9.342;2022-07-18T13:00:07;2.28;;;2.00;;
21743;SDS011;11034;48.556;9.342;2022-07-18T13:02:35;2.42;;;2.17;;
21743;SDS011;11034;48.556;9.342;2022-07-18T13:05:06;5.65;;;2.28;;
21743;SDS011;11034;48.556;9.342;2022-07-18T13:07:34;4.05;;;2.05;;
21743;SDS011;11034;48.556;9.342;2022-07-18T13:10:02;4.72;;;2.00;;
21743;SDS011;11034;48.556;9.342;2022-07-18T13:12:31;3.05;;;1.98;;
21743;SDS011;11034;48.556;9.342;2022-07-18T13:15:00;7.50;;;2.30;;
21743;SDS011;11034;48.556;9.342;2022-07-18T13:17:28;3.10;;;2.15;;
21743;SDS011;11034;48.556;9.342;2022-07-18T13:19:56;5.45;;;2.30;;
21743;SDS011;11034;48.556;9.342;2022-07-18T13:22:25;2.47;;;2.10;;
21743;SDS011;11034;48.556;9.342;2022-07-18T13:24:54;6.78;;;2.20;;
21743;SDS011;11034;48.556;9.342;2022-07-18T13:27:22;4.18;;;2.42;;
21743;SDS011;11034;48.556;9.342;2022-07-18T13:29:50;7.03;;;2.20;;
21743;SDS011;11034;48.556;9.342;2022-07-18T13:32:18;3.72;;;2.08;;
21743;SDS011;11034;48.556;9.342;2022-07-18T13:34:46;6.63;;;2.03;;
21743;SDS011;11034;48.556;9.342;2022-07-18T13:37:14;4.25;;;2.00;;
21743;SDS011;11034;48.556;9.342;2022-07-18T13:39:44;2.67;;;2.00;;
21743;SDS011;11034;48.556;9.342;2022-07-18T13:42:12;3.53;;;1.88;;
21743;SDS011;11034;48.556;9.342;2022-07-18T13:44:40;5.28;;;2.05;;
21743;SDS011;11034;48.556;9.342;2022-07-18T13:47:08;6.55;;;2.10;;
21743;SDS011;11034;48.556;9.342;2022-07-18T13:49:36;4.55;;;2.22;;
21743;SDS011;11034;48.556;9.342;2022-07-18T13:52:05;2.20;;;1.90;;
21743;SDS011;11034;48.556;9.342;2022-07-18T13:54:36;3.78;;;1.80;;
21743;SDS011;11034;48.556;9.342;2022-07-18T13:57:05;4.53;;;2.10;;
21743;SDS011;11034;48.556;9.342;2022-07-18T13:59:33;2.20;;;2.00;;
21743;SDS011;11034;48.556;9.342;2022-07-18T14:02:01;5.20;;;2.20;;
21743;SDS011;11034;48.556;9.342;2022-07-18T14:04:30;5.93;;;2.38;;
21743;SDS011;11034;48.556;9.342;2022-07-18T14:07:18;2.67;;;1.98;;
21743;SDS011;11034;48.556;9.342;2022-07-18T14:09:46;4.60;;;2.15;;
21743;SDS011;11034;48.556;9.342;2022-07-18T14:12:21;4.10;;;2.17;;
21743;SDS011;11034;48.556;9.342;2022-07-18T14:14:49;5.55;;;1.92;;
21743;SDS011;11034;48.556;9.342;2022-07-18T14:17:17;5.47;;;2.10;;
21743;SDS011;11034;48.556;9.342;2022-07-18T14:19:45;3.75;;;2.00;;
21743;SDS011;11034;48.556;9.342;2022-07-18T14:22:13;3.97;;;1.88;;
21743;SDS011;11034;48.556;9.342;2022-07-18T14:24:41;4.50;;;2.00;;
21743;SDS011;11034;48.556;9.342;2022-07-18T14:27:09;1.95;;;1.75;;
21743;SDS011;11034;48.556;9.342;2022-07-18T14:29:39;5.50;;;1.80;;
21743;SDS011;11034;48.556;9.342;2022-07-18T14:32:07;5.68;;;2.10;;
21743;SDS011;11034;48.556;9.342;2022-07-18T14:34:35;3.60;;;2.35;;
21743;SDS011;11034;48.556;9.342;2022-07-18T14:37:04;3.35;;;1.98;;
21743;SDS011;11034;48.556;9.342;2022-07-18T14:39:35;7.60;;;2.00;;
21743;SDS011;11034;48.556;9.342;2022-07-18T14:42:03;3.88;;;2.10;;
21743;SDS011;11034;48.556;9.342;2022-07-18T14:44:32;6.85;;;2.22;;
21743;SDS011;11034;48.556;9.342;2022-07-18T14:47:01;2.13;;;1.90;;
21743;SDS011;11034;48.556;9.342;2022-07-18T14:49:30;4.43;;;2.00;;
21743;SDS011;11034;48.556;9.342;2022-07-18T14:51:58;3.83;;;1.85;;
21743;SDS011;11034;48.556;9.342;2022-07-18T14:54:27;5.05;;;1.95;;
21743;SDS011;11034;48.556;9.342;2022-07-18T14:56:55;3.30;;;1.80;;
21743;SDS011;11034;48.556;9.342;2022-07-18T14:59:24;3.33;;;1.90;;
21743;SDS011;11034;48.556;9.342;2022-07-18T15:01:52;4.20;;;2.10;;
21743;SDS011;11034;48.556;9.342;2022-07-18T15:04:22;4.80;;;1.95;;
21743;SDS011;11034;48.556;9.342;2022-07-18T15:06:55;2.88;;;2.10;;
21743;SDS011;11034;48.556;9.342;2022-07-18T15:09:26;3.30;;;2.00;;
21743;SDS011;11034;48.556;9.342;2022-07-18T15:12:00;4.13;;;1.88;;
21743;SDS011;11034;48.556;9.342;2022-07-18T15:14:28;2.42;;;1.98;;
21743;SDS011;11034;48.556;9.342;2022-07-18T15:16:59;2.53;;;1.88;;
21743;SDS011;11034;48.556;9.342;2022-07-18T15:19:29;4.93;;;1.92;;
21743;SDS011;11034;48.556;9.342;2022-07-18T15:33:23;2.90;;;1.85;;